Time;durP1;ratioP1;P1;durP2;ratioP2;P2;SDS_P1;SDS_P2;PMS_P1;PMS_P2;Temp;Humidity;BMP_temperature;BMP_pressure;BME280_temperature;BME280_humidity;BME280_pressure;Samples;Min_cycle;Max_cycle;Signal;HPM_P1;HPM_P2
2023/12/25 00:00:39;;;;;;;3.75;2.10;;;11.70;99.90;;;;;;5112966;28;20365;-74
2023/12/25 00:03:05;;;;;;;4.50;2.23;;;11.60;99.90;;;;;;5113001;28;20380;-73
2023/12/25 00:05:30;;;;;;;2.50;2.30;;;11.60;99.90;;;;;;5114222;28;20392;-72
2023/12/25 00:07:56;;;;;;;3.37;2.10;;;11.60;99.90;;;;;;5114685;28;20464;-74
2023/12/25 00:10:21;;;;;;;3.03;2.10;;;11.70;99.90;;;;;;5113097;28;20384;-74
2023/12/25 00:12:47;;;;;;;5.60;2.78;;;11.70;99.90;;;;;;5110928;28;20878;-74
2023/12/25 00:15:12;;;;;;;7.68;2.75;;;11.70;99.90;;;;;;5111802;28;20453;-74
2023/12/25 00:17:38;;;;;;;4.90;2.50;;;11.60;99.90;;;;;;5114457;28;20376;-74
2023/12/25 00:20:04;;;;;;;2.67;2.30;;;11.70;99.60;;;;;;5114196;28;20841;-73
2023/12/25 00:22:30;;;;;;;3.90;2.65;;;11.70;98.20;;;;;;5114160;28;20380;-75
2023/12/25 00:24:55;;;;;;;5.53;2.40;;;11.70;98.60;;;;;;5113948;28;20380;-73
2023/12/25 00:27:21;;;;;;;2.17;2.00;;;11.70;96.30;;;;;;5095755;28;20437;-72
2023/12/25 00:29:46;;;;;;;3.10;1.90;;;11.80;95.40;;;;;;5115856;28;20372;-73
2023/12/25 00:32:12;;;;;;;5.73;2.10;;;11.80;96.30;;;;;;5115458;28;20387;-76
2023/12/25 00:34:37;;;;;;;1.90;1.70;;;11.80;95.60;;;;;;5114751;28;20469;-75
2023/12/25 00:37:03;;;;;;;3.28;2.20;;;11.80;95.50;;;;;;5116119;28;20877;-75
2023/12/25 00:39:29;;;;;;;3.00;2.20;;;11.80;95.10;;;;;;5117004;28;20377;-73
2023/12/25 00:41:54;;;;;;;3.60;2.03;;;11.80;94.00;;;;;;5115464;28;20385;-74
2023/12/25 00:44:20;;;;;;;3.63;2.20;;;11.90;93.00;;;;;;5114888;28;20716;-72
2023/12/25 00:46:45;;;;;;;5.15;2.10;;;11.80;93.40;;;;;;5114448;28;20404;-73
2023/12/25 00:49:12;;;;;;;2.80;2.30;;;11.80;94.10;;;;;;5114604;28;20388;-74
2023/12/25 00:51:37;;;;;;;4.38;2.17;;;11.80;93.40;;;;;;5095743;28;20744;-74
2023/12/25 00:54:03;;;;;;;2.97;2.38;;;11.80;93.80;;;;;;5114192;28;20380;-74
2023/12/25 00:56:29;;;;;;;4.80;2.20;;;11.90;94.40;;;;;;5114220;28;20764;-74
2023/12/25 00:58:54;;;;;;;3.90;2.20;;;11.80;95.30;;;;;;5114418;28;20380;-74
2023/12/25 01:01:20;;;;;;;4.10;1.90;;;11.80;95.00;;;;;;5115270;28;20408;-74
2023/12/25 01:03:45;;;;;;;2.80;1.90;;;11.80;94.50;;;;;;5116574;28;20381;-73
2023/12/25 01:06:11;;;;;;;3.40;1.90;;;11.80;94.40;;;;;;5114798;28;20423;-74
2023/12/25 01:08:36;;;;;;;3.10;1.90;;;11.90;94.50;;;;;;5115763;28;20391;-73
2023/12/25 01:11:02;;;;;;;1.93;1.73;;;11.90;95.60;;;;;;5115242;28;20402;-74
2023/12/25 01:13:28;;;;;;;3.67;1.92;;;11.90;93.90;;;;;;5114398;28;20419;-74
2023/12/25 01:15:54;;;;;;;3.72;1.88;;;11.90;95.00;;;;;;5116524;28;20439;-74
2023/12/25 01:18:19;;;;;;;3.70;1.90;;;11.90;94.40;;;;;;5115052;28;20783;-74
2023/12/25 01:20:46;;;;;;;3.00;1.83;;;11.90;94.70;;;;;;5114189;28;20767;-75
2023/12/25 01:23:12;;;;;;;2.95;1.73;;;11.80;94.60;;;;;;5114430;28;20467;-73
2023/12/25 01:25:37;;;;;;;3.40;2.15;;;11.80;95.50;;;;;;5113416;28;20850;-73
2023/12/25 01:28:03;;;;;;;3.13;2.00;;;11.80;95.80;;;;;;5094753;28;20399;-73
2023/12/25 01:30:29;;;;;;;2.63;1.65;;;11.80;96.00;;;;;;5113860;28;20380;-75
2023/12/25 01:32:54;;;;;;;4.00;2.10;;;11.80;97.30;;;;;;5113872;28;20437;-74
2023/12/25 01:35:21;;;;;;;5.20;1.70;;;11.80;97.20;;;;;;5113457;28;20455;-73
2023/12/25 01:37:46;;;;;;;2.70;1.50;;;11.80;96.70;;;;;;5113292;28;20379;-73
2023/12/25 01:40:12;;;;;;;2.85;2.20;;;11.80;96.50;;;;;;5113701;28;20460;-75
2023/12/25 01:42:44;;;;;;;2.72;2.00;;;11.80;97.70;;;;;;5113630;28;20535;-73
2023/12/25 01:45:10;;;;;;;3.63;1.48;;;11.80;98.30;;;;;;5112864;28;20415;-74
2023/12/25 01:47:36;;;;;;;4.05;1.80;;;11.80;97.30;;;;;;5113234;28;20388;-74
2023/12/25 01:50:04;;;;;;;4.53;1.80;;;11.80;98.50;;;;;;5113033;28;20376;-74
2023/12/25 01:52:29;;;;;;;3.60;1.70;;;11.90;97.00;;;;;;5112970;28;20467;-74
2023/12/25 01:54:57;;;;;;;3.10;1.80;;;11.80;96.00;;;;;;5112849;28;20484;-75
2023/12/25 01:57:25;;;;;;;2.10;1.70;;;11.80;97.80;;;;;;5113312;28;20429;-74
2023/12/25 01:59:50;;;;;;;3.75;1.90;;;11.90;97.60;;;;;;5113579;28;20373;-73
2023/12/25 02:02:18;;;;;;;2.63;1.80;;;11.90;98.20;;;;;;5115238;28;20449;-73
2023/12/25 02:04:44;;;;;;;1.60;1.50;;;11.90;97.70;;;;;;5129037;28;20401;-73
2023/12/25 02:07:11;;;;;;;4.33;1.70;;;11.80;97.70;;;;;;5130422;28;20396;-76
2023/12/25 02:09:37;;;;;;;4.55;1.60;;;11.80;98.80;;;;;;5122437;28;20386;-75
2023/12/25 02:12:02;;;;;;;2.35;1.30;;;11.90;95.40;;;;;;5112382;28;20380;-75
2023/12/25 02:14:28;;;;;;;4.25;1.77;;;11.90;95.50;;;;;;5112402;28;20776;-75
2023/12/25 02:16:54;;;;;;;2.72;1.80;;;12.00;95.70;;;;;;5112225;28;20401;-74
2023/12/25 02:19:32;;;;;;;4.40;2.10;;;11.90;96.90;;;;;;5112814;28;20416;-72
2023/12/25 02:21:59;;;;;;;3.90;1.70;;;11.90;96.40;;;;;;5112431;28;20388;-74
2023/12/25 02:24:29;;;;;;;3.90;1.80;;;11.90;97.60;;;;;;5112044;28;20376;-72
2023/12/25 02:26:54;;;;;;;5.03;1.60;;;11.90;98.00;;;;;;5112783;28;20472;-74
2023/12/25 02:29:20;;;;;;;3.70;1.80;;;11.90;97.90;;;;;;5115316;28;20489;-75
2023/12/25 02:31:50;;;;;;;3.47;1.83;;;11.90;98.00;;;;;;5115217;28;20383;-74
2023/12/25 02:34:16;;;;;;;1.95;1.50;;;11.90;99.70;;;;;;5117902;22;20435;-72
2023/12/25 02:36:41;;;;;;;2.80;1.60;;;11.90;99.30;;;;;;5070865;28;20829;-72
2023/12/25 02:39:07;;;;;;;2.37;1.80;;;11.90;99.30;;;;;;5070923;28;20380;-72
2023/12/25 02:41:32;;;;;;;3.40;1.80;;;11.90;97.60;;;;;;5071196;28;20928;-73
2023/12/25 02:43:58;;;;;;;1.80;1.60;;;11.90;98.40;;;;;;5070832;28;20368;-73
2023/12/25 02:46:24;;;;;;;2.47;1.45;;;11.90;97.30;;;;;;5070910;28;20484;-71
2023/12/25 02:48:50;;;;;;;1.90;1.57;;;11.90;95.30;;;;;;5070802;28;20473;-72
2023/12/25 02:51:15;;;;;;;2.40;1.70;;;11.90;94.40;;;;;;5070851;28;20382;-71
2023/12/25 02:53:41;;;;;;;3.92;1.77;;;11.90;95.30;;;;;;5070562;28;20409;-72
2023/12/25 02:56:07;;;;;;;3.30;1.67;;;12.00;95.00;;;;;;5052549;28;20416;-70
2023/12/25 02:58:33;;;;;;;2.00;1.20;;;12.00;93.20;;;;;;5070623;28;20386;-70
2023/12/25 03:00:58;;;;;;;1.60;1.50;;;12.00;93.50;;;;;;5070464;28;20394;-69
2023/12/25 03:03:24;;;;;;;4.20;1.50;;;12.00;92.40;;;;;;5052721;28;20502;-70
2023/12/25 03:05:50;;;;;;;3.72;1.80;;;12.00;92.50;;;;;;5052195;28;20391;-71
2023/12/25 03:08:15;;;;;;;2.50;1.40;;;12.10;91.50;;;;;;5070703;28;20437;-72
2023/12/25 03:10:41;;;;;;;1.70;1.13;;;12.10;90.70;;;;;;5070305;28;20388;-71
2023/12/25 03:13:07;;;;;;;2.17;1.50;;;12.10;89.50;;;;;;5070536;28;20441;-72
2023/12/25 03:15:33;;;;;;;1.80;1.10;;;12.10;89.80;;;;;;5070556;28;20403;-70
2023/12/25 03:17:58;;;;;;;2.13;1.10;;;12.10;89.20;;;;;;5070484;28;20391;-70
2023/12/25 03:20:24;;;;;;;1.90;1.20;;;12.10;88.30;;;;;;5052173;28;20383;-71
2023/12/25 03:22:49;;;;;;;1.40;1.15;;;12.10;88.40;;;;;;5070405;28;20383;-71
2023/12/25 03:25:15;;;;;;;2.13;1.20;;;12.10;87.30;;;;;;5070405;28;20407;-70
2023/12/25 03:27:40;;;;;;;1.43;1.10;;;12.20;85.60;;;;;;5070431;28;20528;-71
2023/12/25 03:30:06;;;;;;;2.70;0.90;;;12.20;85.30;;;;;;5070604;28;20477;-74
2023/12/25 03:32:33;;;;;;;1.00;0.90;;;12.30;84.90;;;;;;5070472;28;20427;-72
2023/12/25 03:34:59;;;;;;;2.90;1.10;;;12.20;85.90;;;;;;5070127;28;20422;-71
2023/12/25 03:37:25;;;;;;;2.40;1.00;;;12.30;84.80;;;;;;5070967;28;20765;-71
2023/12/25 03:39:51;;;;;;;1.55;1.00;;;12.20;86.00;;;;;;5070653;28;20388;-71
2023/12/25 03:42:17;;;;;;;2.30;1.20;;;12.20;85.50;;;;;;5070480;28;20372;-71
2023/12/25 03:44:42;;;;;;;1.90;1.40;;;12.20;84.50;;;;;;5070090;28;20383;-71
2023/12/25 03:47:08;;;;;;;1.70;1.17;;;12.20;85.90;;;;;;5070242;28;20451;-70
2023/12/25 03:49:33;;;;;;;3.30;1.08;;;12.20;85.50;;;;;;5071010;28;20449;-70
2023/12/25 03:51:59;;;;;;;2.53;1.40;;;12.20;85.10;;;;;;5074256;28;20379;-72
2023/12/25 03:54:25;;;;;;;2.80;1.20;;;12.20;84.80;;;;;;5074060;28;20379;-70
2023/12/25 03:56:50;;;;;;;1.40;1.00;;;12.20;85.10;;;;;;5074166;28;20371;-73
2023/12/25 03:59:16;;;;;;;2.40;1.00;;;12.30;84.40;;;;;;5074058;28;20387;-70
2023/12/25 04:01:41;;;;;;;1.60;1.00;;;12.30;83.80;;;;;;5074261;28;20884;-72
2023/12/25 04:04:07;;;;;;;1.40;1.10;;;12.30;83.40;;;;;;5073982;28;20926;-71
2023/12/25 04:06:32;;;;;;;1.10;1.00;;;12.30;83.10;;;;;;5073860;28;20387;-72
2023/12/25 04:08:58;;;;;;;1.80;1.10;;;12.30;83.10;;;;;;5073691;28;20775;-72
2023/12/25 04:11:24;;;;;;;1.88;1.00;;;12.30;83.10;;;;;;5056188;28;20399;-72
2023/12/25 04:13:53;;;;;;;3.13;1.25;;;12.40;82.70;;;;;;5073752;28;20845;-71
2023/12/25 04:16:26;;;;;;;1.92;1.20;;;12.40;82.00;;;;;;5073671;28;20901;-72
2023/12/25 04:18:53;;;;;;;3.30;1.10;;;12.40;82.00;;;;;;5073791;28;20394;-72
2023/12/25 04:21:32;;;;;;;2.03;1.10;;;12.40;82.30;;;;;;5073691;28;20382;-73
2023/12/25 04:23:59;;;;;;;3.70;1.10;;;12.40;83.20;;;;;;5073804;28;20429;-72
2023/12/25 04:26:25;;;;;;;2.85;1.10;;;12.30;84.80;;;;;;5073594;28;20729;-72
2023/12/25 04:28:51;;;;;;;3.10;1.40;;;12.40;83.70;;;;;;5073701;28;20483;-72
2023/12/25 04:31:17;;;;;;;2.10;1.30;;;12.40;83.80;;;;;;5073413;28;20394;-72
2023/12/25 04:33:43;;;;;;;1.37;1.00;;;12.40;83.40;;;;;;5055454;28;20474;-72
2023/12/25 04:36:09;;;;;;;1.20;1.10;;;12.40;82.60;;;;;;5073310;28;20451;-71
2023/12/25 04:38:36;;;;;;;2.35;1.10;;;12.40;82.80;;;;;;5073606;28;20382;-71
2023/12/25 04:41:02;;;;;;;1.50;1.00;;;12.40;84.40;;;;;;5073238;28;20380;-71
2023/12/25 04:43:28;;;;;;;2.45;1.10;;;12.30;85.00;;;;;;5073633;28;20472;-71
2023/12/25 04:45:53;;;;;;;1.20;1.10;;;12.40;86.20;;;;;;5073149;28;20472;-71
2023/12/25 04:48:19;;;;;;;1.40;0.95;;;12.30;86.40;;;;;;5073072;28;20394;-72
2023/12/25 04:50:44;;;;;;;2.30;0.80;;;12.20;87.80;;;;;;5072914;28;20422;-71
2023/12/25 04:53:10;;;;;;;3.20;1.10;;;12.20;89.40;;;;;;5073166;28;20422;-72
2023/12/25 04:55:37;;;;;;;2.40;0.80;;;12.20;88.90;;;;;;5072805;28;20403;-71
2023/12/25 04:58:03;;;;;;;1.30;0.82;;;12.20;87.60;;;;;;5072794;28;20432;-70
2023/12/25 05:00:30;;;;;;;1.27;0.90;;;12.10;88.70;;;;;;5072515;28;20865;-71
2023/12/25 05:02:55;;;;;;;1.20;0.90;;;12.20;88.80;;;;;;5072803;28;20746;-71
2023/12/25 05:05:21;;;;;;;1.70;1.00;;;12.20;87.50;;;;;;5072597;28;20394;-71
2023/12/25 05:07:46;;;;;;;2.80;1.10;;;12.10;88.70;;;;;;5072777;28;20387;-70
2023/12/25 05:10:12;;;;;;;1.70;0.90;;;12.10;89.60;;;;;;5072855;28;20746;-72
2023/12/25 05:12:37;;;;;;;1.37;0.80;;;12.20;86.40;;;;;;5072864;28;20458;-72
2023/12/25 05:15:03;;;;;;;1.35;1.10;;;12.20;86.30;;;;;;5054285;28;20960;-72
2023/12/25 05:17:29;;;;;;;1.40;0.80;;;12.20;87.30;;;;;;5073067;28;20418;-71
2023/12/25 05:19:54;;;;;;;1.30;1.00;;;12.20;88.40;;;;;;5072274;28;20388;-71
2023/12/25 05:22:20;;;;;;;3.42;1.10;;;12.10;88.60;;;;;;5072505;28;20892;-71
2023/12/25 05:24:45;;;;;;;1.63;0.90;;;12.10;90.00;;;;;;5072397;28;20878;-71
2023/12/25 05:27:11;;;;;;;2.53;1.10;;;12.10;91.30;;;;;;5072647;28;20376;-71
2023/12/25 05:29:37;;;;;;;5.60;1.20;;;12.00;91.60;;;;;;5072484;28;20909;-71
2023/12/25 05:32:03;;;;;;;2.50;1.08;;;12.00;91.00;;;;;;5072304;28;20470;-71
2023/12/25 05:34:28;;;;;;;2.30;0.93;;;12.00;91.70;;;;;;5072196;28;20428;-70
2023/12/25 05:36:54;;;;;;;2.40;1.20;;;12.00;89.90;;;;;;5071888;28;20403;-71
2023/12/25 05:39:20;;;;;;;2.85;0.90;;;12.00;90.20;;;;;;5072091;28;20448;-71
2023/12/25 05:41:45;;;;;;;3.80;0.98;;;12.00;90.00;;;;;;5072266;28;20476;-72
2023/12/25 05:44:11;;;;;;;1.50;0.90;;;11.90;90.60;;;;;;5072165;28;20376;-73
2023/12/25 05:46:37;;;;;;;2.30;0.90;;;12.00;89.50;;;;;;5072031;28;20384;-71
2023/12/25 05:49:03;;;;;;;2.20;0.98;;;12.00;89.00;;;;;;5071310;28;20387;-71
2023/12/25 05:51:29;;;;;;;1.83;1.07;;;12.00;90.70;;;;;;5071853;28;20391;-75
2023/12/25 05:53:55;;;;;;;1.30;0.90;;;11.90;90.80;;;;;;5071930;28;20380;-71
2023/12/25 05:56:21;;;;;;;1.30;1.17;;;11.90;90.30;;;;;;5053781;28;20538;-71
2023/12/25 05:58:46;;;;;;;1.55;1.20;;;11.90;90.20;;;;;;5071847;28;20396;-72
2023/12/25 06:01:13;;;;;;;1.50;1.30;;;12.00;88.60;;;;;;5071617;28;20383;-71
2023/12/25 06:03:41;;;;;;;1.55;1.45;;;11.90;89.60;;;;;;5071891;28;20375;-72
2023/12/25 06:06:07;;;;;;;1.70;1.20;;;11.90;89.40;;;;;;5071098;28;20399;-72
2023/12/25 06:08:33;;;;;;;2.05;1.30;;;11.90;90.20;;;;;;5071762;28;20412;-72
2023/12/25 06:10:59;;;;;;;1.60;1.20;;;12.00;88.40;;;;;;5071541;28;20407;-72
2023/12/25 06:13:25;;;;;;;1.70;1.20;;;12.00;87.80;;;;;;5070806;28;20758;-72
2023/12/25 06:15:51;;;;;;;1.50;1.30;;;12.00;87.70;;;;;;5071032;28;20805;-71
2023/12/25 06:18:17;;;;;;;2.00;1.45;;;12.00;88.00;;;;;;5071612;28;20388;-71
2023/12/25 06:20:43;;;;;;;2.20;1.40;;;12.00;87.20;;;;;;5071464;28;20380;-72
2023/12/25 06:23:09;;;;;;;2.47;1.30;;;12.00;86.50;;;;;;5071722;28;20472;-72
2023/12/25 06:25:35;;;;;;;1.75;1.20;;;12.00;86.10;;;;;;5071735;28;20706;-72
2023/12/25 06:28:00;;;;;;;1.48;1.33;;;12.00;86.10;;;;;;5071308;28;20449;-71
2023/12/25 06:30:26;;;;;;;2.22;1.50;;;12.00;86.00;;;;;;5071474;28;20391;-72
2023/12/25 06:32:51;;;;;;;1.95;1.20;;;12.00;84.80;;;;;;5071797;28;20466;-71
2023/12/25 06:35:17;;;;;;;3.20;1.20;;;12.00;85.40;;;;;;5073509;28;20407;-72
2023/12/25 06:37:43;;;;;;;1.40;1.30;;;12.10;84.30;;;;;;5071845;28;20392;-71
2023/12/25 06:40:09;;;;;;;1.90;1.10;;;12.10;83.30;;;;;;5071871;28;20778;-71
2023/12/25 06:42:34;;;;;;;4.50;1.40;;;12.10;82.50;;;;;;5071634;28;20383;-72
2023/12/25 06:45:00;;;;;;;2.63;1.30;;;12.10;81.90;;;;;;5071398;28;20475;-71
2023/12/25 06:47:26;;;;;;;1.90;1.20;;;12.10;82.60;;;;;;5053794;28;20387;-73
2023/12/25 06:49:52;;;;;;;2.77;1.30;;;12.20;81.10;;;;;;5071174;28;20503;-72
2023/12/25 06:52:18;;;;;;;3.70;1.50;;;12.20;80.80;;;;;;5071285;28;20738;-73
2023/12/25 06:54:44;;;;;;;2.20;1.40;;;12.20;81.20;;;;;;5070708;28;20406;-72
2023/12/25 06:57:09;;;;;;;2.30;1.20;;;12.20;81.50;;;;;;5070762;28;20379;-72
2023/12/25 06:59:35;;;;;;;1.70;1.20;;;12.20;80.90;;;;;;5070833;28;20690;-71
2023/12/25 07:02:00;;;;;;;1.63;1.33;;;12.20;82.10;;;;;;5070805;28;20380;-71
2023/12/25 07:04:26;;;;;;;1.83;1.10;;;12.10;84.00;;;;;;5070506;28;20383;-72
2023/12/25 07:06:52;;;;;;;2.80;1.20;;;12.20;82.00;;;;;;5070453;28;20433;-72
2023/12/25 07:09:17;;;;;;;3.70;1.33;;;12.10;82.90;;;;;;5070434;28;20380;-70
2023/12/25 07:11:43;;;;;;;2.92;1.40;;;12.10;83.50;;;;;;5070216;28;20383;-72
2023/12/25 07:14:08;;;;;;;2.20;1.40;;;12.20;82.50;;;;;;5070158;28;20750;-72
2023/12/25 07:16:34;;;;;;;2.60;1.27;;;12.20;83.20;;;;;;5069677;28;20404;-71
2023/12/25 07:19:00;;;;;;;1.10;0.90;;;12.10;83.70;;;;;;5070127;28;20876;-73
2023/12/25 07:21:25;;;;;;;2.60;1.10;;;12.20;82.50;;;;;;5070620;28;20380;-71
2023/12/25 07:23:52;;;;;;;1.40;0.90;;;12.20;81.30;;;;;;5070135;28;20368;-71
2023/12/25 07:26:18;;;;;;;1.52;1.05;;;12.30;81.90;;;;;;5070246;28;20386;-73
2023/12/25 07:28:44;;;;;;;2.13;1.20;;;12.20;80.70;;;;;;5070065;28;20387;-71
2023/12/25 07:31:10;;;;;;;2.30;1.00;;;12.30;80.20;;;;;;5070127;28;20452;-70
2023/12/25 07:33:36;;;;;;;2.22;1.20;;;12.30;79.80;;;;;;5069955;28;20408;-71
2023/12/25 07:36:02;;;;;;;1.50;1.20;;;12.30;80.40;;;;;;5069618;28;20408;-71
2023/12/25 07:38:28;;;;;;;1.20;0.95;;;12.30;79.80;;;;;;5052397;28;20380;-72
2023/12/25 07:40:54;;;;;;;1.20;0.90;;;12.30;79.50;;;;;;5070118;28;20383;-71
2023/12/25 07:43:19;;;;;;;1.30;0.83;;;12.40;79.50;;;;;;5070259;28;20440;-72
2023/12/25 07:45:44;;;;;;;1.10;1.00;;;12.40;78.90;;;;;;5069962;28;20851;-71
2023/12/25 07:48:10;;;;;;;2.50;1.10;;;12.40;78.30;;;;;;5069966;28;20641;-73
2023/12/25 07:50:36;;;;;;;2.10;1.08;;;12.40;79.50;;;;;;5070003;28;20724;-71
2023/12/25 07:53:02;;;;;;;0.90;0.80;;;12.40;79.60;;;;;;5069993;28;20379;-70
2023/12/25 07:55:29;;;;;;;1.13;0.90;;;12.30;80.30;;;;;;5069687;28;20769;-71
2023/12/25 07:57:55;;;;;;;1.70;0.80;;;12.40;79.60;;;;;;5069888;28;20460;-71
2023/12/25 08:00:21;;;;;;;1.10;0.90;;;12.40;80.10;;;;;;5069805;28;20430;-72
2023/12/25 08:02:46;;;;;;;1.15;0.90;;;12.40;79.80;;;;;;5051895;28;20398;-72
2023/12/25 08:05:12;;;;;;;1.25;0.80;;;12.40;79.70;;;;;;5069612;28;20486;-73
2023/12/25 08:07:37;;;;;;;1.90;0.70;;;12.40;79.40;;;;;;5069960;28;20376;-73
2023/12/25 08:10:03;;;;;;;1.40;0.90;;;12.40;79.30;;;;;;5070034;28;20441;-72
2023/12/25 08:12:29;;;;;;;1.70;0.90;;;12.40;79.30;;;;;;5051616;28;20517;-71
2023/12/25 08:14:54;;;;;;;1.50;1.00;;;12.40;78.10;;;;;;5069491;28;20569;-72
2023/12/25 08:17:20;;;;;;;1.77;0.90;;;12.50;78.60;;;;;;5069617;28;20414;-71
2023/12/25 08:19:46;;;;;;;1.10;0.70;;;12.50;78.20;;;;;;5069585;28;20376;-70
2023/12/25 08:22:11;;;;;;;1.10;0.80;;;12.50;77.70;;;;;;5069617;28;20387;-71
2023/12/25 08:24:37;;;;;;;1.50;0.80;;;12.50;77.40;;;;;;5069611;28;20384;-73
2023/12/25 08:27:03;;;;;;;2.10;1.00;;;12.60;77.00;;;;;;5069413;28;20764;-71
2023/12/25 08:29:28;;;;;;;1.80;0.80;;;12.60;76.70;;;;;;5069739;28;20387;-71
2023/12/25 08:31:55;;;;;;;2.10;0.90;;;12.60;76.20;;;;;;5069499;28;20442;-72
2023/12/25 08:34:23;;;;;;;1.10;0.90;;;12.60;75.50;;;;;;5085665;22;20391;-74
2023/12/25 08:36:49;;;;;;;2.13;0.80;;;12.70;75.40;;;;;;5074350;28;20479;-74
2023/12/25 08:39:15;;;;;;;1.40;0.80;;;12.70;76.00;;;;;;5093667;28;20370;-74
2023/12/25 08:41:40;;;;;;;1.30;0.80;;;12.60;76.00;;;;;;5093516;28;20382;-75
2023/12/25 08:44:06;;;;;;;1.00;0.70;;;12.70;75.20;;;;;;5092931;28;20477;-76
2023/12/25 08:46:32;;;;;;;2.53;0.80;;;12.70;75.00;;;;;;5072539;28;20380;-75
2023/12/25 08:48:57;;;;;;;1.50;1.00;;;12.70;75.30;;;;;;5073239;28;20380;-74
2023/12/25 08:51:23;;;;;;;1.50;0.80;;;12.70;75.50;;;;;;5073393;28;20414;-74
2023/12/25 08:53:49;;;;;;;2.10;0.80;;;12.80;74.60;;;;;;5073770;28;20404;-74
2023/12/25 08:56:26;;;;;;;1.30;0.60;;;12.80;74.70;;;;;;5072788;28;20415;-76
2023/12/25 08:58:52;;;;;;;1.17;0.80;;;12.80;73.50;;;;;;5055056;28;20384;-76
2023/12/25 09:01:18;;;;;;;1.10;0.70;;;12.70;74.90;;;;;;5073398;28;20785;-75
2023/12/25 09:03:43;;;;;;;0.80;0.70;;;12.70;74.90;;;;;;5074118;28;20419;-74
2023/12/25 09:06:09;;;;;;;1.30;0.70;;;12.80;74.60;;;;;;5073923;28;20430;-78
2023/12/25 09:08:34;;;;;;;1.30;0.80;;;12.80;73.30;;;;;;5061761;28;20413;-74
2023/12/25 09:11:00;;;;;;;1.20;0.60;;;12.80;73.50;;;;;;5050903;28;20767;-75
2023/12/25 09:13:25;;;;;;;1.10;0.70;;;12.80;74.50;;;;;;5057954;28;20392;-74
2023/12/25 09:15:51;;;;;;;0.93;0.70;;;12.90;74.10;;;;;;5070918;28;20431;-74
2023/12/25 09:18:16;;;;;;;1.90;0.70;;;12.80;74.00;;;;;;5065880;28;20397;-73
2023/12/25 09:20:42;;;;;;;1.60;0.63;;;12.90;73.50;;;;;;5078922;28;20496;-74
2023/12/25 09:23:08;;;;;;;2.00;0.70;;;12.90;72.80;;;;;;5076120;28;20882;-73
2023/12/25 09:25:33;;;;;;;1.40;0.70;;;12.90;73.20;;;;;;5082429;28;20415;-74
2023/12/25 09:27:59;;;;;;;1.17;0.70;;;12.90;73.20;;;;;;5070524;28;20384;-73
2023/12/25 09:30:24;;;;;;;0.80;0.70;;;12.90;73.70;;;;;;5075813;28;20430;-72
2023/12/25 09:32:50;;;;;;;2.70;0.60;;;12.90;74.10;;;;;;5056507;28;20478;-74
2023/12/25 09:35:17;;;;;;;0.90;0.70;;;12.90;74.70;;;;;;5049854;28;20428;-73
2023/12/25 09:37:43;;;;;;;1.00;0.70;;;12.90;75.50;;;;;;5068402;28;20401;-73
2023/12/25 09:40:09;;;;;;;2.70;0.70;;;12.90;75.90;;;;;;5090598;28;20382;-74
2023/12/25 09:42:35;;;;;;;0.90;0.70;;;12.90;76.90;;;;;;5067654;28;20404;-73
2023/12/25 09:45:01;;;;;;;1.10;0.80;;;12.90;76.50;;;;;;5083981;28;20477;-75
2023/12/25 09:47:27;;;;;;;1.00;0.90;;;12.90;76.40;;;;;;5091514;28;20386;-73
2023/12/25 09:49:55;;;;;;;1.05;0.60;;;12.90;76.60;;;;;;5054651;28;20397;-74
2023/12/25 09:52:23;;;;;;;1.90;0.70;;;12.90;75.70;;;;;;5051512;28;20421;-74
2023/12/25 09:54:48;;;;;;;2.42;0.73;;;12.90;76.00;;;;;;5056413;28;20464;-74
2023/12/25 09:57:16;;;;;;;0.90;0.70;;;12.90;75.20;;;;;;5061769;28;20443;-74
2023/12/25 09:59:42;;;;;;;0.93;0.60;;;12.90;74.90;;;;;;5061793;28;20447;-72
2023/12/25 10:02:11;;;;;;;1.10;0.70;;;12.90;74.10;;;;;;5086338;28;20388;-73
2023/12/25 10:04:38;;;;;;;1.00;0.70;;;12.90;73.70;;;;;;5070802;28;20440;-73
2023/12/25 10:07:04;;;;;;;0.90;0.70;;;12.90;73.50;;;;;;5070254;28;20419;-72
2023/12/25 10:09:30;;;;;;;1.10;0.70;;;12.90;74.50;;;;;;5070555;28;20419;-74
2023/12/25 10:11:56;;;;;;;1.30;0.70;;;12.90;74.60;;;;;;5070343;28;20434;-74
2023/12/25 10:14:21;;;;;;;0.80;0.60;;;12.90;74.40;;;;;;5074903;28;20428;-72
2023/12/25 10:16:48;;;;;;;1.00;0.60;;;12.90;74.60;;;;;;5057906;28;20512;-74
2023/12/25 10:19:15;;;;;;;0.90;0.70;;;12.90;75.10;;;;;;5055265;28;20405;-73
2023/12/25 10:21:43;;;;;;;0.80;0.60;;;12.80;74.90;;;;;;5090871;28;20389;-75
2023/12/25 10:24:15;;;;;;;1.10;0.68;;;12.80;75.40;;;;;;5090639;28;20386;-74
2023/12/25 10:26:44;;;;;;;1.00;0.80;;;12.80;76.80;;;;;;5089430;28;20765;-74
2023/12/25 10:29:10;;;;;;;3.20;0.70;;;12.80;76.60;;;;;;5089824;28;20446;-73
2023/12/25 10:31:43;;;;;;;1.20;0.90;;;12.80;76.70;;;;;;5081088;28;20402;-73
2023/12/25 10:34:08;;;;;;;1.30;0.93;;;12.80;77.50;;;;;;5049613;28;20390;-75
2023/12/25 10:36:34;;;;;;;0.85;0.70;;;12.80;78.70;;;;;;5048750;28;20435;-73
2023/12/25 10:39:00;;;;;;;1.58;0.80;;;12.80;80.20;;;;;;5049805;28;20389;-74
2023/12/25 10:41:28;;;;;;;0.90;0.80;;;12.70;81.60;;;;;;5049827;28;20390;-73
2023/12/25 10:43:55;;;;;;;0.90;0.80;;;12.70;82.40;;;;;;5050437;28;20432;-73
2023/12/25 10:46:26;;;;;;;0.90;0.80;;;12.70;82.60;;;;;;5049239;28;20397;-73
2023/12/25 10:48:53;;;;;;;0.80;0.77;;;12.70;84.40;;;;;;5049944;28;20377;-73
2023/12/25 10:51:43;;;;;;;1.20;1.00;;;12.60;86.00;;;;;;5049653;28;20408;-74
2023/12/25 10:54:10;;;;;;;2.97;0.80;;;12.70;87.10;;;;;;5049621;28;20385;-75
2023/12/25 10:56:39;;;;;;;1.23;1.00;;;12.70;86.40;;;;;;5066450;28;20550;-73
2023/12/25 10:59:23;;;;;;;1.40;0.93;;;12.70;86.90;;;;;;5054046;28;20405;-74
2023/12/25 11:01:50;;;;;;;1.10;0.85;;;12.60;86.00;;;;;;5053797;28;20441;-72
2023/12/25 11:04:16;;;;;;;1.80;1.10;;;12.70;85.70;;;;;;5069078;28;20379;-74
2023/12/25 11:06:46;;;;;;;2.00;0.90;;;12.70;85.40;;;;;;5069165;28;20376;-74
2023/12/25 11:09:14;;;;;;;1.60;0.98;;;12.70;85.40;;;;;;5067619;28;20778;-73
2023/12/25 11:11:41;;;;;;;1.60;0.90;;;12.80;85.30;;;;;;5048898;28;20393;-72
2023/12/25 11:14:07;;;;;;;1.20;1.10;;;12.70;85.80;;;;;;5048790;28;20380;-72
2023/12/25 11:16:34;;;;;;;1.80;1.00;;;12.70;84.50;;;;;;5048630;28;20409;-74
2023/12/25 11:19:00;;;;;;;1.10;1.00;;;12.70;85.70;;;;;;5048532;28;20385;-75
2023/12/25 11:21:30;;;;;;;2.00;1.10;;;12.70;86.70;;;;;;5048811;28;20807;-74
2023/12/25 11:23:57;;;;;;;1.10;1.00;;;12.70;86.60;;;;;;5052069;28;20388;-75
2023/12/25 11:26:23;;;;;;;1.38;1.15;;;12.70;86.60;;;;;;5066008;28;20473;-75
2023/12/25 11:29:01;;;;;;;1.00;0.90;;;12.70;86.00;;;;;;5072118;28;20494;-73
2023/12/25 11:31:44;;;;;;;1.30;1.05;;;12.80;86.00;;;;;;5070986;28;20767;-74
2023/12/25 11:34:23;;;;;;;1.40;0.80;;;12.80;84.70;;;;;;5068003;28;20398;-74
2023/12/25 11:36:58;;;;;;;1.38;0.90;;;12.80;84.20;;;;;;5068094;28;22578;-76
2023/12/25 11:39:29;;;;;;;1.20;1.00;;;12.80;84.10;;;;;;5068550;28;20390;-74
2023/12/25 11:41:55;;;;;;;2.13;1.08;;;12.80;85.70;;;;;;5068360;28;20412;-73
2023/12/25 11:44:33;;;;;;;1.73;1.00;;;12.80;85.70;;;;;;5068787;28;20383;-75
2023/12/25 11:47:02;;;;;;;1.20;1.10;;;12.80;86.10;;;;;;5068451;28;20915;-74
2023/12/25 11:49:31;;;;;;;2.00;1.10;;;12.80;85.80;;;;;;5068533;28;20388;-75
2023/12/25 11:51:57;;;;;;;2.53;1.10;;;12.70;86.00;;;;;;5067966;28;20852;-75
2023/12/25 11:54:28;;;;;;;2.10;0.90;;;12.80;86.00;;;;;;5068208;28;20426;-74
2023/12/25 11:56:56;;;;;;;1.20;1.10;;;12.70;86.40;;;;;;5059315;28;20496;-75
2023/12/25 11:59:21;;;;;;;1.73;1.20;;;12.70;87.30;;;;;;5048087;28;20382;-76
2023/12/25 12:01:47;;;;;;;1.20;0.90;;;12.80;85.90;;;;;;5048080;28;20748;-76
2023/12/25 12:04:16;;;;;;;1.20;1.10;;;12.80;86.00;;;;;;5048377;28;20392;-76
2023/12/25 12:06:42;;;;;;;1.60;1.00;;;12.80;86.30;;;;;;5048173;28;20902;-76
2023/12/25 12:09:07;;;;;;;1.70;1.00;;;12.70;86.30;;;;;;5057299;28;20486;-75
2023/12/25 12:11:33;;;;;;;1.10;1.00;;;12.80;85.40;;;;;;5070555;28;20762;-75
2023/12/25 12:13:58;;;;;;;2.20;1.00;;;12.80;86.90;;;;;;5072911;28;20870;-74
2023/12/25 12:16:27;;;;;;;1.70;1.60;;;12.80;87.10;;;;;;5072195;28;20425;-76
2023/12/25 12:18:53;;;;;;;1.90;1.00;;;12.80;88.80;;;;;;5072409;28;20455;-75
2023/12/25 12:21:18;;;;;;;1.40;1.00;;;12.80;88.30;;;;;;5073735;28;20440;-77
2023/12/25 12:23:44;;;;;;;3.00;1.30;;;12.80;88.10;;;;;;5073489;28;20880;-76
2023/12/25 12:26:15;;;;;;;2.30;1.30;;;12.70;88.70;;;;;;5069621;28;20388;-74
2023/12/25 12:28:42;;;;;;;1.70;1.00;;;12.70;90.20;;;;;;5071739;28;20931;-76
2023/12/25 12:31:08;;;;;;;1.38;1.10;;;12.80;89.20;;;;;;5081800;28;20404;-76
2023/12/25 12:33:33;;;;;;;1.50;1.20;;;12.80;87.80;;;;;;5081927;28;20423;-74
2023/12/25 12:36:01;;;;;;;2.30;1.50;;;12.80;88.30;;;;;;5070779;28;20849;-73
2023/12/25 12:38:27;;;;;;;2.00;1.00;;;12.80;87.40;;;;;;5072104;28;20498;-76
2023/12/25 12:40:53;;;;;;;3.78;1.30;;;12.90;86.80;;;;;;5071861;28;20922;-74
2023/12/25 12:43:20;;;;;;;1.35;0.80;;;12.90;86.60;;;;;;5071728;28;20694;-75